Time;durP1;ratioP1;P1;durP2;ratioP2;P2;SDS_P1;SDS_P2;PMS_P1;PMS_P2;Temp;Humidity;BMP_temperature;BMP_pressure;BME280_temperature;BME280_humidity;BME280_pressure;Samples;Min_cycle;Max_cycle;Signal;HPM_P1;HPM_P2
2022/06/23 00:02:15;;;;;;;6.43;4.90;;;14.80;99.90;;;;;;5094398;28;20274;-76
2022/06/23 00:04:45;;;;;;;7.63;4.90;;;14.80;99.90;;;;;;5094736;28;20278;-76
2022/06/23 00:07:20;;;;;;;7.13;5.03;;;14.70;99.90;;;;;;5094671;28;20297;-75
2022/06/23 00:09:50;;;;;;;7.33;5.40;;;14.70;99.90;;;;;;5094332;28;20283;-76
2022/06/23 00:12:19;;;;;;;9.90;5.80;;;14.70;99.90;;;;;;5094524;28;20286;-75
2022/06/23 00:14:54;;;;;;;6.80;5.73;;;14.70;99.90;;;;;;5094254;28;20285;-76
2022/06/23 00:17:20;;;;;;;9.77;5.33;;;;;;;;;;5076055;28;20294;-76
2022/06/23 00:19:46;;;;;;;6.47;5.70;;;14.60;99.90;;;;;;5094150;28;20278;-76
2022/06/23 00:22:13;;;;;;;6.57;5.70;;;14.60;99.90;;;;;;5094153;28;20290;-75
2022/06/23 00:24:40;;;;;;;8.20;5.90;;;14.60;99.90;;;;;;5094070;28;20039;-76
2022/06/23 00:27:13;;;;;;;7.60;5.43;;;14.50;99.90;;;;;;5093710;28;20301;-76
2022/06/23 00:29:39;;;;;;;7.97;5.27;;;14.50;99.90;;;;;;5094068;28;20287;-75
2022/06/23 00:32:05;;;;;;;8.40;5.60;;;14.50;99.90;;;;;;5093689;28;20282;-75
2022/06/23 00:34:33;;;;;;;6.83;5.63;;;14.40;99.90;;;;;;5094003;28;20048;-76
2022/06/23 00:37:07;;;;;;;7.73;6.40;;;14.40;99.90;;;;;;5093579;28;20369;-75
2022/06/23 00:39:37;;;;;;;7.37;5.97;;;14.40;99.90;;;;;;5093799;28;20282;-75
2022/06/23 00:42:06;;;;;;;7.43;5.30;;;14.40;99.90;;;;;;5093600;28;20377;-76
2022/06/23 00:44:54;;;;;;;7.83;6.40;;;14.40;99.90;;;;;;5093587;28;20290;-76
2022/06/23 00:47:25;;;;;;;7.07;6.23;;;14.40;99.90;;;;;;5093849;28;20646;-75
2022/06/23 00:50:19;;;;;;;9.73;6.40;;;14.30;99.90;;;;;;5093130;28;20753;-76
2022/06/23 00:52:52;;;;;;;9.07;6.67;;;14.30;99.90;;;;;;5093600;28;20282;-76
2022/06/23 00:56:16;;;;;;;9.27;6.50;;;14.30;99.90;;;;;;5093637;28;20923;-76
2022/06/23 00:58:58;;;;;;;8.03;6.87;;;14.30;99.90;;;;;;5014505;28;20296;-76
2022/06/23 01:01:42;;;;;;;8.40;6.63;;;14.30;99.90;;;;;;5087487;28;20286;-77
2022/06/23 01:04:18;;;;;;;7.40;6.33;;;14.30;99.90;;;;;;5093272;28;20293;-76
2022/06/23 01:07:00;;;;;;;9.77;6.70;;;14.20;99.90;;;;;;5093508;28;20301;-76
2022/06/23 01:09:43;;;;;;;8.53;6.70;;;14.20;99.90;;;;;;5093385;28;20286;-76
2022/06/23 01:12:36;;;;;;;10.10;7.20;;;14.20;99.90;;;;;;5093136;28;20286;-76
2022/06/23 01:15:18;;;;;;;8.07;6.30;;;14.10;99.90;;;;;;5093110;28;20285;-76
2022/06/23 01:18:04;;;;;;;8.13;6.60;;;14.10;99.90;;;;;;5093438;28;20278;-76
2022/06/23 01:20:39;;;;;;;9.53;7.00;;;14.10;99.90;;;;;;5093245;28;20286;-76
2022/06/23 01:23:55;;;;;;;8.23;7.07;;;14.10;99.90;;;;;;5093045;28;20278;-76
2022/06/23 01:26:31;;;;;;;12.05;7.30;;;14.20;99.90;;;;;;5066633;28;20377;-76
2022/06/23 01:29:18;;;;;;;8.00;6.90;;;14.20;99.90;;;;;;5074963;28;20145;-76
2022/06/23 01:31:52;;;;;;;11.07;6.93;;;14.10;99.90;;;;;;5093048;28;20290;-76
2022/06/23 01:34:38;;;;;;;8.27;6.70;;;14.20;99.90;;;;;;5092866;28;20420;-76
2022/06/23 01:38:02;;;;;;;10.17;7.53;;;14.10;99.90;;;;;;5092766;28;20278;-76
2022/06/23 01:41:00;;;;;;;10.13;7.80;;;14.10;99.90;;;;;;5030420;28;20296;-76
2022/06/23 01:43:36;;;;;;;9.73;7.87;;;14.10;99.90;;;;;;5088595;28;20337;-76
2022/06/23 01:46:11;;;;;;;9.97;7.60;;;14.10;99.90;;;;;;5092604;28;20326;-76
2022/06/23 01:48:52;;;;;;;11.53;8.43;;;14.00;99.90;;;;;;5074961;28;20351;-76
2022/06/23 01:51:25;;;;;;;9.20;7.97;;;14.00;99.90;;;;;;5092658;28;21000;-76
2022/06/23 01:53:54;;;;;;;9.10;7.40;;;14.00;99.90;;;;;;5075324;28;20294;-76
2022/06/23 01:56:36;;;;;;;11.83;8.43;;;14.00;99.90;;;;;;5074512;28;20278;-76
2022/06/23 01:59:34;;;;;;;9.30;7.27;;;14.00;99.90;;;;;;5092652;28;20622;-76
2022/06/23 02:02:06;;;;;;;9.40;7.60;;;14.00;99.90;;;;;;5038736;28;20436;-76
2022/06/23 02:05:05;;;;;;;11.47;8.63;;;14.00;99.90;;;;;;5075096;28;20363;-76
2022/06/23 02:07:40;;;;;;;12.87;8.43;;;13.90;99.90;;;;;;5096802;28;20302;-76
2022/06/23 02:10:18;;;;;;;10.02;8.43;;;13.90;99.90;;;;;;5096423;28;20297;-76
2022/06/23 02:12:59;;;;;;;11.60;8.40;;;13.90;99.90;;;;;;5096761;28;20055;-76
2022/06/23 02:15:34;;;;;;;9.87;8.87;;;14.00;99.90;;;;;;5096729;28;20278;-76
2022/06/23 02:18:21;;;;;;;10.57;8.40;;;13.90;99.90;;;;;;5096430;28;20626;-76
2022/06/23 02:21:01;;;;;;;10.67;8.47;;;13.90;99.90;;;;;;5096884;28;20634;-76
2022/06/23 02:23:55;;;;;;;9.87;8.60;;;13.90;99.90;;;;;;5096497;28;20278;-76
2022/06/23 02:26:33;;;;;;;11.37;8.87;;;13.90;99.90;;;;;;5096080;28;20274;-76
2022/06/23 02:29:25;;;;;;;10.57;8.60;;;13.80;99.90;;;;;;5096488;28;20297;-76
2022/06/23 02:32:14;;;;;;;11.43;9.17;;;13.80;99.90;;;;;;5089572;28;20634;-76
2022/06/23 02:34:43;;;;;;;10.10;8.57;;;13.80;99.90;;;;;;5096416;28;20282;-76
2022/06/23 02:37:46;;;;;;;13.53;8.77;;;13.80;99.90;;;;;;5095898;28;20290;-76
2022/06/23 02:40:21;;;;;;;10.30;8.30;;;13.80;99.90;;;;;;5095878;28;20286;-76
2022/06/23 02:42:56;;;;;;;11.50;8.93;;;13.80;99.90;;;;;;5096338;28;20270;-76
2022/06/23 02:45:22;;;;;;;13.38;9.98;;;13.80;99.90;;;;;;5095671;28;20297;-76
2022/06/23 02:48:16;;;;;;;12.93;8.77;;;13.70;99.90;;;;;;5095963;28;20056;-76
2022/06/23 02:51:13;;;;;;;11.33;9.80;;;13.70;99.90;;;;;;5078438;28;20388;-76
2022/06/23 02:53:44;;;;;;;11.50;9.30;;;13.70;99.90;;;;;;5096130;28;20286;-76
2022/06/23 02:56:13;;;;;;;10.23;8.77;;;13.70;99.90;;;;;;5095533;28;20293;-76
2022/06/23 02:58:56;;;;;;;11.70;10.37;;;13.70;99.90;;;;;;5095793;28;20413;-76
2022/06/23 03:01:39;;;;;;;11.20;9.37;;;13.70;99.90;;;;;;5095542;28;20282;-76
2022/06/23 03:04:23;;;;;;;10.70;9.33;;;13.70;99.90;;;;;;5095686;28;20278;-76
2022/06/23 03:07:09;;;;;;;11.57;9.67;;;13.70;99.90;;;;;;5095585;28;20328;-76
2022/06/23 03:10:01;;;;;;;12.03;9.83;;;13.70;99.90;;;;;;5095856;28;20611;-76
2022/06/23 03:12:36;;;;;;;11.97;9.83;;;13.80;99.90;;;;;;5094613;28;20347;-76
2022/06/23 03:15:06;;;;;;;;;;;13.70;99.90;;;;;;5096088;28;20282;-76
2022/06/23 03:17:41;;;;;;;12.33;10.80;;;13.80;99.90;;;;;;5095213;28;19943;-76
2022/06/23 03:20:46;;;;;;;11.65;10.25;;;13.80;99.90;;;;;;5095341;28;20747;-76
2022/06/23 03:23:23;;;;;;;12.43;8.87;;;13.80;99.90;;;;;;5032583;28;20053;-76
2022/06/23 03:26:08;;;;;;;13.83;10.13;;;13.80;99.90;;;;;;5087489;28;20293;-76
2022/06/23 03:28:44;;;;;;;15.15;9.68;;;13.80;99.90;;;;;;5095788;28;20305;-76
2022/06/23 03:31:20;;;;;;;12.70;10.70;;;13.90;99.90;;;;;;5094929;28;20050;-76
2022/06/23 03:34:21;;;;;;;14.20;10.63;;;13.90;99.90;;;;;;5095116;28;20792;-76
2022/06/23 03:37:27;;;;;;;14.07;10.00;;;13.90;99.90;;;;;;5095052;28;20755;-76
2022/06/23 03:42:55;;;;;;;13.03;10.73;;;13.90;99.90;;;;;;5094895;28;20492;-75
2022/06/23 03:45:38;;;;;;;13.43;11.20;;;13.80;99.90;;;;;;5094425;28;20346;-76
2022/06/23 03:48:19;;;;;;;13.57;10.70;;;13.90;99.90;;;;;;5094782;28;20290;-76
2022/06/23 03:51:02;;;;;;;14.80;11.83;;;13.90;99.90;;;;;;5094924;28;20278;-76
2022/06/23 03:53:44;;;;;;;13.93;10.90;;;13.90;99.90;;;;;;5094508;28;20279;-76
2022/06/23 03:56:16;;;;;;;12.93;10.93;;;13.80;99.90;;;;;;5094406;28;20274;-76
2022/06/23 03:59:18;;;;;;;13.40;11.10;;;13.90;99.90;;;;;;5094691;28;20299;-76
2022/06/23 04:02:13;;;;;;;14.03;11.47;;;13.90;99.90;;;;;;5094857;28;20282;-76
2022/06/23 04:04:53;;;;;;;14.57;12.13;;;13.90;99.90;;;;;;5088607;28;20301;-76
2022/06/23 04:07:50;;;;;;;15.23;12.00;;;13.90;99.90;;;;;;5094212;28;20118;-76
2022/06/23 04:10:43;;;;;;;14.50;11.83;;;13.90;99.90;;;;;;5092996;28;20294;-76
2022/06/23 04:13:30;;;;;;;13.70;11.50;;;14.00;99.90;;;;;;5091454;28;20294;-76
2022/06/23 04:16:03;;;;;;;15.33;12.07;;;14.00;99.90;;;;;;5059907;28;20286;-76
2022/06/23 04:18:30;;;;;;;14.27;11.23;;;14.00;99.90;;;;;;5094070;28;20270;-76
2022/06/23 04:21:04;;;;;;;17.07;12.53;;;14.00;99.90;;;;;;5094291;28;20364;-76
2022/06/23 04:23:51;;;;;;;15.93;12.13;;;14.10;99.90;;;;;;5093948;28;20271;-76
2022/06/23 04:26:42;;;;;;;14.80;12.50;;;14.20;99.90;;;;;;5075861;28;20435;-76
2022/06/23 04:29:24;;;;;;;14.57;10.93;;;14.20;99.90;;;;;;5093227;28;20777;-76
2022/06/23 04:32:01;;;;;;;14.73;11.67;;;14.30;99.90;;;;;;5076407;28;20286;-76
2022/06/23 04:34:35;;;;;;;16.03;11.87;;;14.30;99.90;;;;;;5076346;28;20267;-76
2022/06/23 04:37:01;;;;;;;14.80;10.67;;;14.40;99.90;;;;;;5076294;28;20304;-76
2022/06/23 04:39:59;;;;;;;13.90;10.60;;;14.40;99.90;;;;;;5093608;28;20278;-76
2022/06/23 04:42:26;;;;;;;13.60;11.57;;;14.60;99.90;;;;;;5093610;28;20270;-76
2022/06/23 04:44:57;;;;;;;12.63;11.00;;;14.70;99.90;;;;;;5093562;28;20361;-75
2022/06/23 04:47:31;;;;;;;11.87;10.40;;;14.70;99.90;;;;;;5093335;28;20305;-76
2022/06/23 04:50:02;;;;;;;12.47;10.33;;;14.90;99.90;;;;;;5093769;28;20282;-75
2022/06/23 04:52:43;;;;;;;14.03;11.00;;;15.00;99.90;;;;;;5093519;28;20680;-75
2022/06/23 04:55:16;;;;;;;14.07;10.67;;;15.10;99.90;;;;;;5093620;28;20266;-76
2022/06/23 04:57:57;;;;;;;14.00;10.50;;;15.20;99.90;;;;;;5093778;28;20600;-76
2022/06/23 05:00:27;;;;;;;13.47;10.63;;;15.40;99.90;;;;;;5093155;28;20282;-76
2022/06/23 05:03:02;;;;;;;12.77;10.07;;;15.40;99.90;;;;;;5093501;28;20289;-76
2022/06/23 05:05:35;;;;;;;14.67;10.00;;;15.60;99.90;;;;;;5075401;28;20368;-75
2022/06/23 05:08:26;;;;;;;12.63;9.63;;;15.70;99.90;;;;;;5093317;28;20476;-76
2022/06/23 05:11:20;;;;;;;12.33;9.93;;;15.80;99.90;;;;;;5093560;28;20289;-75
2022/06/23 05:13:54;;;;;;;13.07;9.17;;;15.90;99.90;;;;;;5093707;28;20630;-76
2022/06/23 05:16:27;;;;;;;13.73;10.73;;;16.10;99.90;;;;;;5093140;28;20285;-76
2022/06/23 05:18:54;;;;;;;12.73;10.03;;;16.20;99.90;;;;;;5093107;28;20766;-76
2022/06/23 05:21:28;;;;;;;11.60;9.80;;;16.30;99.90;;;;;;5092957;28;20626;-75
2022/06/23 05:23:59;;;;;;;13.10;10.10;;;16.40;99.90;;;;;;5093195;28;20330;-76
2022/06/23 05:26:47;;;;;;;11.47;8.67;;;16.60;99.90;;;;;;5092859;28;20290;-76
2022/06/23 05:29:20;;;;;;;12.17;9.47;;;16.70;99.90;;;;;;5092127;28;20393;-76
2022/06/23 05:31:49;;;;;;;12.77;9.53;;;;;;;;;;5093196;28;20812;-75
2022/06/23 05:34:27;;;;;;;10.10;8.37;;;17.20;99.90;;;;;;5093088;28;20757;-76
2022/06/23 05:37:04;;;;;;;11.37;9.50;;;17.20;99.90;;;;;;5093359;28;20274;-76
2022/06/23 05:39:34;;;;;;;11.47;9.27;;;17.40;99.90;;;;;;5075939;28;20278;-75
2022/06/23 05:42:06;;;;;;;10.77;8.77;;;17.50;99.90;;;;;;5079406;28;20778;-76
2022/06/23 05:44:33;;;;;;;11.37;9.53;;;;;;;;;;5097019;28;20274;-75
2022/06/23 05:47:01;;;;;;;10.77;8.63;;;18.20;99.90;;;;;;5097348;28;20139;-75
2022/06/23 05:49:39;;;;;;;10.23;8.53;;;18.20;99.90;;;;;;5096832;28;20044;-75
2022/06/23 05:52:07;;;;;;;12.67;9.00;;;18.70;99.90;;;;;;5097121;28;20040;-75
2022/06/23 05:54:44;;;;;;;12.33;8.43;;;;;;;;;;5096730;28;20051;-75
2022/06/23 05:57:33;;;;;;;13.03;8.17;;;21.50;99.90;;;;;;5096955;28;20079;-75
2022/06/23 06:00:17;;;;;;;11.30;7.77;;;;;;;;;;5096935;28;20040;-75
2022/06/23 06:02:55;;;;;;;9.53;6.63;;;23.90;96.10;;;;;;5096535;28;20480;-75
2022/06/23 06:05:31;;;;;;;9.73;7.03;;;24.50;92.20;;;;;;5096777;28;20105;-75
2022/06/23 06:07:59;;;;;;;10.60;6.93;;;;;;;;;;5097064;28;20044;-75
2022/06/23 06:10:27;;;;;;;8.97;6.77;;;25.70;99.90;;;;;;5078362;28;20059;-75
2022/06/23 06:12:54;;;;;;;9.93;6.80;;;26.10;83.70;;;;;;5096668;28;20059;-75
2022/06/23 06:15:24;;;;;;;11.23;6.50;;;26.50;75.60;;;;;;5096695;28;20043;-76
2022/06/23 06:17:51;;;;;;;9.07;6.70;;;;;;;;;;5096425;28;20046;-76
2022/06/23 06:20:23;;;;;;;8.43;6.53;;;27.20;69.90;;;;;;5096779;28;20510;-75
2022/06/23 06:23:02;;;;;;;11.33;6.53;;;27.30;67.40;;;;;;5096471;28;20245;-75
2022/06/23 06:25:33;;;;;;;8.73;6.07;;;;;;;;;;5096159;28;20044;-75
2022/06/23 06:28:23;;;;;;;8.57;6.10;;;28.90;54.40;;;;;;5096382;28;20040;-76
2022/06/23 06:30:51;;;;;;;7.10;5.80;;;28.90;53.50;;;;;;5096077;28;20044;-75
2022/06/23 06:33:37;;;;;;;8.00;5.67;;;;;;;;;;5096302;28;20388;-75
2022/06/23 06:36:20;;;;;;;8.13;6.03;;;;;;;;;;5096261;28;20051;-75
2022/06/23 06:38:46;;;;;;;9.83;5.50;;;30.30;48.60;;;;;;5096059;28;20104;-75
2022/06/23 06:41:12;;;;;;;8.30;6.15;;;;;;;;;;5096171;28;20547;-76
2022/06/23 06:43:38;;;;;;;8.85;6.57;;;;;;;;;;5095884;28;20373;-75
2022/06/23 06:46:04;;;;;;;7.22;5.55;;;;;;;;;;5096027;28;20054;-75
2022/06/23 06:48:33;;;;;;;8.27;6.82;;;;;;;;;;5095692;28;20189;-75
2022/06/23 06:51:19;;;;;;;9.15;6.00;;;;;;;;;;5095268;28;20094;-75
2022/06/23 06:53:47;;;;;;;10.00;6.65;;;;;;;;;;5095097;28;20050;-75
2022/06/23 06:56:13;;;;;;;10.90;6.80;;;;;;;;;;5096001;28;20051;-76
2022/06/23 06:58:43;;;;;;;8.32;6.82;;;;;;;;;;5095591;28;20123;-75
2022/06/23 07:01:19;;;;;;;8.90;5.82;;;;;;;;;;5095723;28;20048;-75
2022/06/23 07:03:48;;;;;;;7.93;6.15;;;31.80;44.00;;;;;;5095570;28;20052;-76
2022/06/23 07:06:21;;;;;;;15.32;5.95;;;;;;;;;;5095349;28;20380;-76
2022/06/23 07:08:56;;;;;;;8.00;5.60;;;31.90;82.70;;;;;;5095269;28;20044;-75
2022/06/23 07:11:47;;;;;;;6.75;5.53;;;32.20;44.00;;;;;;5084846;28;20052;-71
2022/06/23 07:14:37;;;;;;;7.32;5.45;;;32.30;44.60;;;;;;5116022;28;20043;-74
2022/06/23 07:17:37;;;;;;;6.90;5.30;;;32.30;44.00;;;;;;5116224;28;20365;-74
2022/06/23 07:20:19;;;;;;;9.20;5.65;;;32.30;44.40;;;;;;5115958;28;20156;-74
2022/06/23 07:22:52;;;;;;;8.55;5.65;;;;;;;;;;5115618;28;20054;-74
2022/06/23 07:25:26;;;;;;;7.97;5.70;;;32.20;80.10;;;;;;5097572;28;20495;-74
2022/06/23 07:28:02;;;;;;;10.05;5.28;;;;;;;;;;5115382;28;20043;-74
2022/06/23 07:30:31;;;;;;;8.73;5.20;;;;;;;;;;5115613;28;20182;-73
2022/06/23 07:33:13;;;;;;;12.68;5.80;;;;;;;;;;5115512;28;20043;-74
2022/06/23 07:35:41;;;;;;;7.45;4.63;;;32.90;49.30;;;;;;5115392;28;20055;-74
2022/06/23 07:38:06;;;;;;;6.72;4.32;;;32.80;65.50;;;;;;5115751;28;20039;-74
2022/06/23 07:40:36;;;;;;;6.47;4.72;;;;;;;;;;5115281;28;20369;-74
2022/06/23 07:43:08;;;;;;;5.85;4.35;;;;;;;;;;5115478;28;20075;-74
2022/06/23 07:45:44;;;;;;;6.22;4.63;;;32.40;78.90;;;;;;5096719;28;20059;-74
2022/06/23 07:48:10;;;;;;;8.15;4.72;;;;;;;;;;5115181;28;20052;-74
2022/06/23 07:50:36;;;;;;;7.30;4.93;;;;;;;;;;5114914;28;20044;-75
2022/06/23 07:53:03;;;;;;;9.60;5.80;;;32.90;41.60;;;;;;5115099;28;20502;-75
2022/06/23 07:55:42;;;;;;;7.25;4.15;;;33.00;42.00;;;;;;5115141;28;20048;-75
2022/06/23 07:58:08;;;;;;;6.80;4.40;;;33.10;41.80;;;;;;5097275;28;20126;-74
2022/06/23 08:00:37;;;;;;;7.13;4.70;;;;;;;;;;5096766;28;20035;-74
2022/06/23 08:03:13;;;;;;;10.98;5.63;;;33.70;41.00;;;;;;5114010;28;20044;-74
2022/06/23 08:05:42;;;;;;;6.20;4.75;;;33.80;71.40;;;;;;5114765;28;20051;-73
2022/06/23 08:08:15;;;;;;;8.07;5.07;;;33.10;41.50;;;;;;5114792;28;20130;-74
2022/06/23 08:10:42;;;;;;;8.43;5.10;;;33.40;41.20;;;;;;5114694;28;20044;-75
2022/06/23 08:13:17;;;;;;;8.43;4.93;;;33.80;41.60;;;;;;5096811;28;20437;-74
2022/06/23 08:19:06;;;;;;;6.93;5.22;;;34.00;40.10;;;;;;5114257;28;20515;-74
2022/06/23 08:21:39;;;;;;;11.27;5.38;;;34.10;38.90;;;;;;5096599;28;20536;-73
2022/06/23 08:24:17;;;;;;;7.25;4.90;;;;;;;;;;5096945;28;20044;-73
2022/06/23 08:26:46;;;;;;;7.93;4.63;;;;;;;;;;5114147;28;20126;-74
2022/06/23 08:29:16;;;;;;;7.75;5.38;;;34.40;39.20;;;;;;5114491;28;20130;-75
2022/06/23 08:31:42;;;;;;;7.47;4.28;;;33.80;39.90;;;;;;5114059;28;20047;-74
2022/06/23 08:34:09;;;;;;;6.30;4.45;;;33.70;40.30;;;;;;5114141;28;20525;-74
2022/06/23 08:37:00;;;;;;;7.57;4.47;;;34.10;39.90;;;;;;5114270;28;20044;-75
2022/06/23 08:39:26;;;;;;;8.35;4.65;;;;;;;;;;5114404;28;20127;-74
2022/06/23 08:42:20;;;;;;;9.32;4.53;;;33.90;38.30;;;;;;5113964;28;20097;-73
2022/06/23 08:44:58;;;;;;;6.25;3.65;;;33.90;39.00;;;;;;5102617;28;20065;-73
2022/06/23 08:47:29;;;;;;;8.02;4.80;;;34.10;52.10;;;;;;5114195;28;20087;-73
2022/06/23 08:50:00;;;;;;;8.73;4.25;;;33.40;39.00;;;;;;5114125;28;20047;-71
2022/06/23 08:52:38;;;;;;;5.57;3.97;;;33.50;40.30;;;;;;5114060;28;20055;-71
2022/06/23 08:55:11;;;;;;;8.45;4.78;;;;;;;;;;5113666;28;20047;-71
2022/06/23 08:57:42;;;;;;;7.28;3.67;;;;;;;;;;5113983;28;20043;-71
2022/06/23 09:00:08;;;;;;;8.32;4.63;;;;;;;;;;5109052;28;20040;-71
2022/06/23 09:02:37;;;;;;;6.78;4.85;;;;;;;;;;5103777;28;20098;-69
2022/06/23 09:05:08;;;;;;;7.45;4.20;;;;;;;;;;5101919;28;20127;-71
2022/06/23 09:07:49;;;;;;;7.65;4.45;;;30.10;66.30;;;;;;5102713;28;20043;-70
2022/06/23 09:10:36;;;;;;;6.22;4.40;;;29.80;45.80;;;;;;5103771;28;20039;-69
2022/06/23 09:13:42;;;;;;;7.45;4.45;;;29.30;55.60;;;;;;5103877;28;20047;-69
2022/06/23 09:16:16;;;;;;;6.50;4.47;;;29.10;46.70;;;;;;5093384;28;20391;-68
2022/06/23 09:19:08;;;;;;;10.00;4.75;;;;;;;;;;5075352;28;20395;-69
2022/06/23 09:21:34;;;;;;;9.52;4.00;;;;;;;;;;5093276;28;20075;-69
2022/06/23 09:24:18;;;;;;;8.05;3.90;;;;;;;;;;5092858;28;20051;-69
2022/06/23 09:27:20;;;;;;;5.72;3.60;;;;;;;;;;5074801;28;20523;-72
2022/06/23 09:29:55;;;;;;;11.07;3.88;;;;;;;;;;5010663;28;20137;-69
2022/06/23 09:32:34;;;;;;;6.82;3.38;;;;;;;;;;5081796;28;20066;-68
2022/06/23 09:35:32;;;;;;;6.20;3.63;;;;;;;;;;5075073;28;20055;-73
2022/06/23 09:37:58;;;;;;;5.80;3.72;;;;;;;;;;5047982;28;20052;-74
2022/06/23 09:41:01;;;;;;;6.22;3.10;;;28.00;79.60;;;;;;5092970;28;20036;-74
2022/06/23 09:43:49;;;;;;;6.55;3.33;;;27.90;49.00;;;;;;5020382;28;20053;-74
2022/06/23 09:46:43;;;;;;;5.63;3.10;;;27.80;49.60;;;;;;5093285;28;20451;-74
2022/06/23 09:49:42;;;;;;;4.87;2.80;;;27.80;49.60;;;;;;5074699;28;20224;-72
2022/06/23 09:52:26;;;;;;;6.53;3.60;;;27.80;50.20;;;;;;5092759;28;20754;-72
2022/06/23 09:55:10;;;;;;;11.02;3.13;;;27.80;50.90;;;;;;5092648;28;20458;-72
2022/06/23 09:57:54;;;;;;;6.60;3.13;;;27.80;49.60;;;;;;5075278;28;20392;-72
2022/06/23 10:00:40;;;;;;;9.35;4.03;;;27.80;49.70;;;;;;5093138;28;20048;-72
2022/06/23 10:03:05;;;;;;;9.25;3.30;;;27.70;48.80;;;;;;5092575;28;20551;-74
2022/06/23 10:05:37;;;;;;;10.93;3.53;;;27.60;49.60;;;;;;5095915;28;20052;-68
2022/06/23 10:08:19;;;;;;;9.38;2.80;;;27.60;49.60;;;;;;5102528;28;20102;-68
2022/06/23 10:11:09;;;;;;;7.68;2.88;;;27.60;50.10;;;;;;5102964;28;20097;-68
2022/06/23 10:14:21;;;;;;;7.07;2.90;;;27.70;50.80;;;;;;5085725;28;20126;-67
2022/06/23 10:17:35;;;;;;;7.28;3.30;;;27.70;49.30;;;;;;5103270;28;20119;-67
2022/06/23 10:20:20;;;;;;;5.60;2.53;;;27.80;50.00;;;;;;5094603;28;20044;-74
2022/06/23 10:22:49;;;;;;;4.35;2.53;;;27.80;49.40;;;;;;5111416;28;20394;-75
2022/06/23 10:25:20;;;;;;;7.35;2.47;;;27.80;49.30;;;;;;5113009;27;20051;-75
2022/06/23 10:28:13;;;;;;;4.30;2.20;;;27.70;48.60;;;;;;5116005;28;20044;-75
2022/06/23 10:30:52;;;;;;;7.20;2.20;;;27.70;48.00;;;;;;5116883;28;20043;-72
2022/06/23 10:33:37;;;;;;;5.97;2.77;;;27.70;47.30;;;;;;5117537;28;20116;-77
2022/06/23 10:36:22;;;;;;;4.47;2.30;;;27.80;48.20;;;;;;5116491;28;20044;-69
2022/06/23 10:38:54;;;;;;;5.17;2.67;;;27.80;48.10;;;;;;5098700;28;20108;-70
2022/06/23 10:41:44;;;;;;;10.50;2.70;;;27.70;47.70;;;;;;5098665;28;20058;-75
2022/06/23 10:44:29;;;;;;;6.47;2.40;;;27.70;48.30;;;;;;5098306;28;20126;-67
2022/06/23 10:47:14;;;;;;;9.30;3.20;;;27.70;48.30;;;;;;5116260;28;20051;-71
2022/06/23 10:49:48;;;;;;;6.53;2.33;;;27.70;48.50;;;;;;5098586;28;20043;-70
2022/06/23 10:52:14;;;;;;;;;;;27.60;48.20;;;;;;5098706;28;20051;-71
2022/06/23 10:54:54;;;;;;;7.87;3.30;;;27.60;48.20;;;;;;5098526;28;19972;-77
2022/06/23 10:57:57;;;;;;;5.43;2.53;;;27.60;48.50;;;;;;5116852;28;20082;-75
2022/06/23 11:00:41;;;;;;;7.57;2.70;;;27.50;49.00;;;;;;5116409;28;20130;-74
2022/06/23 11:03:36;;;;;;;7.87;2.73;;;27.50;49.00;;;;;;5116004;28;20415;-73
2022/06/23 11:06:02;;;;;;;;;;;;;;;;;;5098096;28;20471;-72
2022/06/23 11:09:03;;;;;;;5.30;2.60;;;27.40;74.50;;;;;;5116139;28;19927;-74
2022/06/23 11:11:58;;;;;;;5.00;2.20;;;27.60;74.00;;;;;;5116306;28;20040;-74
2022/06/23 11:14:41;;;;;;;6.65;2.83;;;27.50;73.90;;;;;;5116227;28;20047;-73
2022/06/23 11:17:23;;;;;;;7.13;2.80;;;27.60;73.30;;;;;;5097645;28;20484;-73
2022/06/23 11:20:01;;;;;;;7.17;3.17;;;27.50;74.20;;;;;;5116317;28;20058;-72
2022/06/23 11:22:50;;;;;;;7.43;2.53;;;27.60;75.10;;;;;;5115846;28;20039;-73
2022/06/23 11:25:53;;;;;;;5.07;2.30;;;27.70;75.30;;;;;;5097530;28;20471;-75
2022/06/23 11:28:25;;;;;;;8.93;2.60;;;27.80;74.50;;;;;;5115394;28;20088;-74
2022/06/23 11:31:09;;;;;;;6.87;2.40;;;27.90;74.10;;;;;;5097724;28;20467;-70
2022/06/23 11:33:41;;;;;;;6.72;2.20;;;27.80;73.30;;;;;;5115858;28;20043;-73
2022/06/23 11:36:25;;;;;;;6.13;2.87;;;27.70;73.70;;;;;;5115109;28;20484;-72
2022/06/23 11:39:07;;;;;;;6.93;2.53;;;27.80;74.60;;;;;;5115386;28;20035;-74
2022/06/23 11:41:43;;;;;;;8.33;2.87;;;27.90;73.90;;;;;;5115492;28;20488;-69
2022/06/23 11:44:28;;;;;;;6.07;2.70;;;27.80;74.70;;;;;;5115217;28;20083;-69
2022/06/23 11:46:57;;;;;;;7.67;2.57;;;;;;;;;;5115034;28;20210;-70
2022/06/23 11:49:34;;;;;;;6.33;2.60;;;;;;;;;;5115426;28;20403;-71
2022/06/23 11:52:16;;;;;;;11.63;2.57;;;28.10;50.80;;;;;;5115236;28;20044;-71
2022/06/23 11:55:06;;;;;;;6.40;2.50;;;28.00;52.10;;;;;;5115204;28;20131;-78
2022/06/23 11:57:53;;;;;;;5.50;2.67;;;27.90;50.10;;;;;;5115095;28;20044;-75
2022/06/23 12:00:36;;;;;;;6.80;2.83;;;28.00;50.10;;;;;;5114819;28;20059;-76
2022/06/23 12:03:10;;;;;;;7.87;2.73;;;28.00;50.20;;;;;;5114870;28;20056;-74
2022/06/23 12:05:44;;;;;;;;;;;28.00;49.80;;;;;;5115476;28;20044;-72
2022/06/23 12:08:41;;;;;;;5.13;2.40;;;28.00;49.80;;;;;;5114717;28;20299;-74
2022/06/23 12:11:07;;;;;;;7.07;3.13;;;28.00;49.80;;;;;;5114718;28;20356;-69
2022/06/23 12:13:36;;;;;;;6.40;2.83;;;28.00;50.40;;;;;;5096531;28;20131;-73
2022/06/23 12:16:02;;;;;;;6.93;2.33;;;28.00;50.40;;;;;;5114531;28;20421;-74
2022/06/23 12:18:43;;;;;;;8.87;2.80;;;28.10;50.60;;;;;;5114748;28;20043;-70
2022/06/23 12:21:21;;;;;;;5.67;2.80;;;28.10;49.60;;;;;;5114564;28;20130;-70
2022/06/23 12:24:02;;;;;;;4.90;2.43;;;28.10;50.70;;;;;;5114924;28;20039;-70
2022/06/23 12:26:32;;;;;;;4.50;2.50;;;28.10;50.70;;;;;;5097578;28;20058;-71
2022/06/23 12:29:17;;;;;;;6.20;2.87;;;28.10;50.30;;;;;;5114407;28;20050;-70
2022/06/23 12:31:44;;;;;;;5.63;2.53;;;28.20;50.00;;;;;;5114700;28;20058;-71
2022/06/23 12:34:38;;;;;;;6.43;2.60;;;28.20;50.70;;;;;;5114146;28;20086;-73
2022/06/23 12:37:43;;;;;;;7.77;3.00;;;28.30;50.40;;;;;;5114101;28;20433;-79
2022/06/23 12:40:29;;;;;;;9.43;2.65;;;28.20;50.20;;;;;;5084495;28;20134;-79
2022/06/23 12:43:10;;;;;;;5.87;2.73;;;28.20;49.20;;;;;;5114486;28;20052;-76
2022/06/23 12:45:44;;;;;;;6.30;2.63;;;28.20;50.20;;;;;;5114292;28;20054;-77
2022/06/23 12:48:13;;;;;;;9.32;2.50;;;28.30;50.10;;;;;;5113976;28;20417;-79
2022/06/23 12:50:42;;;;;;;7.87;2.67;;;28.40;53.70;;;;;;5113254;28;20518;-77
2022/06/23 12:53:37;;;;;;;6.07;2.77;;;28.50;50.00;;;;;;5114193;28;20126;-75
2022/06/23 12:56:30;;;;;;;5.43;2.70;;;28.50;49.40;;;;;;5113850;28;20079;-78
2022/06/23 12:59:02;;;;;;;5.23;2.73;;;28.50;48.90;;;;;;5114004;28;20055;-80
2022/06/23 13:01:44;;;;;;;5.03;2.43;;;28.50;48.40;;;;;;5113759;28;20048;-77
2022/06/23 13:04:31;;;;;;;4.77;2.33;;;28.60;48.30;;;;;;5113615;28;20562;-80
2022/06/23 13:07:12;;;;;;;7.53;2.70;;;28.60;48.70;;;;;;5113974;28;20463;-80
2022/06/23 13:10:00;;;;;;;8.90;2.90;;;28.60;48.80;;;;;;5114146;28;20043;-80
2022/06/23 13:13:06;;;;;;;4.60;2.23;;;28.50;48.70;;;;;;5103153;28;20102;-71
2022/06/23 13:15:51;;;;;;;8.37;3.07;;;28.60;48.10;;;;;;5003993;28;20120;-71
2022/06/23 13:18:36;;;;;;;7.67;2.13;;;28.60;47.00;;;;;;5098560;28;20056;-71
2022/06/23 13:21:37;;;;;;;8.20;2.40;;;28.70;46.10;;;;;;5092988;28;20373;-72
2022/06/23 13:24:09;;;;;;;4.13;2.00;;;28.70;45.80;;;;;;5089322;28;20067;-71
2022/06/23 13:27:00;;;;;;;5.30;2.20;;;28.70;45.40;;;;;;5092507;28;20492;-75
2022/06/23 13:29:40;;;;;;;3.50;1.90;;;28.70;45.70;;;;;;5092937;28;20048;-76
2022/06/23 13:32:24;;;;;;;5.67;2.37;;;28.80;45.50;;;;;;5093298;28;20048;-71
2022/06/23 13:34:56;;;;;;;6.57;2.42;;;28.80;44.50;;;;;;5093732;28;20044;-72
2022/06/23 13:37:47;;;;;;;7.17;2.47;;;28.80;45.20;;;;;;5092786;28;20044;-73
2022/06/23 13:40:45;;;;;;;7.77;2.20;;;28.80;46.30;;;;;;5092896;28;20100;-73
2022/06/23 13:43:55;;;;;;;10.73;2.43;;;28.80;45.90;;;;;;5075247;28;20059;-74
2022/06/23 13:46:28;;;;;;;4.90;2.60;;;28.90;46.70;;;;;;5070589;28;20048;-75
2022/06/23 13:49:23;;;;;;;7.75;2.42;;;28.90;45.70;;;;;;5093103;28;20045;-70
2022/06/23 13:52:00;;;;;;;4.43;2.03;;;29.00;45.70;;;;;;5093037;28;20055;-77
2022/06/23 13:54:44;;;;;;;4.30;2.20;;;29.00;45.20;;;;;;5092336;28;20392;-73
2022/06/23 13:57:24;;;;;;;4.68;2.33;;;29.00;44.90;;;;;;5092945;28;20044;-75
2022/06/23 13:59:58;;;;;;;5.87;2.40;;;29.00;45.40;;;;;;5092743;28;20097;-78
2022/06/23 14:02:24;;;;;;;;;;;29.10;45.40;;;;;;5095714;28;20131;-78
2022/06/23 14:05:04;;;;;;;5.37;2.20;;;29.20;46.10;;;;;;5096979;28;20076;-78
2022/06/23 14:07:45;;;;;;;9.20;2.37;;;29.20;45.70;;;;;;5096905;28;20123;-79
2022/06/23 14:10:27;;;;;;;4.07;2.07;;;29.20;45.30;;;;;;5096913;28;20052;-78